EZY86JD EGPH-LGIR
Flight info
| Callsign | EZY86JD |
|---|---|
| Flight time | N/A |
| Altitude | 35000 |
| Route | TLA Y96 OTBUN DCT NATEB DCT GODOS DCT DODEN DCT NEGIX DCT DINKU M867 XERUM DCT BAVAX DCT RADIZ DCT EVAXI DCT DARZA DCT PINDO DCT PIKOS DCT KEA UL607 GIVIS T514 XAVIS |
| Aircraft | A320/M-SDE2E3FGHIJ1RWXYZ/LB1 |
Departure
| Time | 2026-04-21 08:50 |
|---|---|
| Airport | Edinburgh Airport (EGPH) |
Arrival
| Time | N/A |
|---|---|
| Airport | Heraklion International Nikos Kazantzakis Airport (LGIR) |
| Time | Latitude | Longitude | Altitude | Speed | Heading |
|---|---|---|---|---|---|
| 2026-04-21 08:45 | 55.94956 | -3.36567 | 112 ft | 0 kts | 238° |
| 2026-04-21 08:46 | 55.94956 | -3.36568 | 112 ft | 2 kts | 238° |
| 2026-04-21 08:46 | 55.94924 | -3.36663 | 112 ft | 11 kts | 239° |
| 2026-04-21 08:47 | 55.94909 | -3.36822 | 116 ft | 17 kts | 308° |
| 2026-04-21 08:47 | 55.94876 | -3.37045 | 115 ft | 31 kts | 238° |
| 2026-04-21 08:47 | 55.94748 | -3.37420 | 113 ft | 37 kts | 238° |
| 2026-04-21 08:47 | 55.94616 | -3.37810 | 114 ft | 37 kts | 239° |
| 2026-04-21 08:48 | 55.94483 | -3.38205 | 113 ft | 37 kts | 239° |
| 2026-04-21 08:48 | 55.94382 | -3.38504 | 113 ft | 23 kts | 238° |
| 2026-04-21 08:48 | 55.94309 | -3.38716 | 114 ft | 10 kts | 238° |
| 2026-04-21 08:48 | 55.94277 | -3.38817 | 113 ft | 8 kts | 250° |
| 2026-04-21 08:49 | 55.94302 | -3.38885 | 113 ft | 7 kts | 327° |
| 2026-04-21 08:49 | 55.94346 | -3.38931 | 113 ft | 10 kts | 330° |
| 2026-04-21 08:49 | 55.94431 | -3.38930 | 114 ft | 0 kts | 58° |
| 2026-04-21 08:49 | 55.94459 | -3.38849 | 113 ft | 32 kts | 58° |
| 2026-04-21 08:50 | 55.94702 | -3.38129 | 112 ft | 99 kts | 59° |
| 2026-04-21 08:50 | 55.95150 | -3.36801 | 145 ft | 146 kts | 59° |
| 2026-04-21 08:50 | 55.95681 | -3.35257 | 802 ft | 145 kts | 56° |
| 2026-04-21 08:50 | 55.96301 | -3.33806 | 1334 ft | 156 kts | 46° |
| 2026-04-21 08:51 | 55.97180 | -3.32441 | 1555 ft | 178 kts | 41° |
| 2026-04-21 08:51 | 55.98168 | -3.30921 | 1833 ft | 197 kts | 43° |
| 2026-04-21 08:51 | 55.99247 | -3.29164 | 2145 ft | 222 kts | 45° |
| 2026-04-21 08:51 | 56.00424 | -3.27231 | 2705 ft | 235 kts | 44° |
| 2026-04-21 08:52 | 56.01644 | -3.25241 | 3499 ft | 240 kts | 44° |
| 2026-04-21 08:52 | 56.02888 | -3.23222 | 4299 ft | 243 kts | 45° |
| 2026-04-21 08:52 | 56.04147 | -3.21175 | 5095 ft | 246 kts | 46° |
| 2026-04-21 08:52 | 56.05170 | -3.18723 | 5788 ft | 249 kts | 66° |
| 2026-04-21 08:53 | 56.05643 | -3.15768 | 5982 ft | 248 kts | 86° |
| 2026-04-21 08:53 | 56.05478 | -3.12718 | 6008 ft | 248 kts | 104° |
| 2026-04-21 08:53 | 56.04784 | -3.09900 | 6015 ft | 250 kts | 121° |
| 2026-04-21 08:53 | 56.03622 | -3.07569 | 6019 ft | 254 kts | 138° |
| 2026-04-21 08:54 | 56.02210 | -3.05647 | 6019 ft | 255 kts | 140° |
| 2026-04-21 08:54 | 56.00795 | -3.03729 | 6017 ft | 255 kts | 139° |
| 2026-04-21 08:54 | 55.99382 | -3.01814 | 6018 ft | 256 kts | 140° |
| 2026-04-21 08:54 | 55.97870 | -3.00128 | 6019 ft | 258 kts | 151° |
| 2026-04-21 08:55 | 55.96119 | -2.99343 | 6022 ft | 266 kts | 175° |
| 2026-04-21 08:55 | 55.94296 | -3.00005 | 6022 ft | 273 kts | 199° |
| 2026-04-21 08:55 | 55.92501 | -3.01181 | 6456 ft | 273 kts | 184° |
| 2026-04-21 08:55 | 55.90649 | -3.00966 | 7270 ft | 265 kts | 158° |
| 2026-04-21 08:56 | 55.89003 | -2.99588 | 8043 ft | 262 kts | 148° |
| 2026-04-21 08:56 | 55.87397 | -2.98044 | 8849 ft | 263 kts | 148° |
| 2026-04-21 08:56 | 55.85782 | -2.96510 | 9616 ft | 264 kts | 148° |
| 2026-04-21 08:56 | 55.84150 | -2.94975 | 10374 ft | 266 kts | 149° |
| 2026-04-21 08:57 | 55.82491 | -2.93418 | 10857 ft | 278 kts | 149° |
| 2026-04-21 08:57 | 55.80712 | -2.91746 | 10992 ft | 301 kts | 149° |
| 2026-04-21 08:57 | 55.78811 | -2.89964 | 11313 ft | 315 kts | 149° |
| 2026-04-21 08:57 | 55.76856 | -2.88143 | 11891 ft | 319 kts | 149° |
| 2026-04-21 08:58 | 55.74876 | -2.86303 | 12538 ft | 323 kts | 149° |
| 2026-04-21 08:58 | 55.72875 | -2.84449 | 13172 ft | 326 kts | 149° |
| 2026-04-21 08:58 | 55.70858 | -2.82579 | 13798 ft | 329 kts | 149° |
| 2026-04-21 08:58 | 55.68823 | -2.80693 | 14397 ft | 332 kts | 149° |
| 2026-04-21 08:59 | 55.66765 | -2.78786 | 14928 ft | 335 kts | 149° |
| 2026-04-21 08:59 | 55.64719 | -2.76890 | 15473 ft | 338 kts | 149° |
| 2026-04-21 08:59 | 55.62604 | -2.74933 | 16036 ft | 340 kts | 149° |
| 2026-04-21 08:59 | 55.60500 | -2.72989 | 16591 ft | 342 kts | 149° |
| 2026-04-21 09:00 | 55.58408 | -2.71059 | 17130 ft | 345 kts | 149° |
| 2026-04-21 09:00 | 55.56274 | -2.69093 | 17698 ft | 347 kts | 149° |
| 2026-04-21 09:00 | 55.54127 | -2.67121 | 18234 ft | 349 kts | 149° |
| 2026-04-21 09:00 | 55.51935 | -2.65110 | 18753 ft | 352 kts | 149° |
| 2026-04-21 09:01 | 55.49785 | -2.63140 | 19229 ft | 354 kts | 149° |
| 2026-04-21 09:01 | 55.47586 | -2.61123 | 19633 ft | 358 kts | 149° |
| 2026-04-21 09:01 | 55.45370 | -2.59096 | 20054 ft | 361 kts | 150° |
| 2026-04-21 09:01 | 55.43103 | -2.57025 | 20495 ft | 363 kts | 150° |
| 2026-04-21 09:02 | 55.40884 | -2.55000 | 20934 ft | 365 kts | 150° |
| 2026-04-21 09:02 | 55.38624 | -2.52940 | 21367 ft | 367 kts | 150° |
| 2026-04-21 09:02 | 55.36349 | -2.50871 | 21781 ft | 369 kts | 150° |
| 2026-04-21 09:03 | 55.31757 | -2.46704 | 22615 ft | 373 kts | 149° |
| 2026-04-21 09:03 | 55.29570 | -2.44268 | 23012 ft | 373 kts | 140° |
| 2026-04-21 09:03 | 55.27677 | -2.41162 | 23409 ft | 372 kts | 129° |
| 2026-04-21 09:03 | 55.26149 | -2.37499 | 23799 ft | 373 kts | 120° |
| 2026-04-21 09:04 | 55.24866 | -2.33529 | 24167 ft | 375 kts | 119° |
| 2026-04-21 09:04 | 55.23576 | -2.29545 | 24490 ft | 378 kts | 119° |
| 2026-04-21 09:04 | 55.22269 | -2.25534 | 24798 ft | 380 kts | 119° |
| 2026-04-21 09:04 | 55.20955 | -2.21509 | 25105 ft | 382 kts | 119° |
| 2026-04-21 09:05 | 55.19626 | -2.17454 | 25385 ft | 385 kts | 119° |
| 2026-04-21 09:05 | 55.18285 | -2.13378 | 25681 ft | 387 kts | 119° |
| 2026-04-21 09:05 | 55.16936 | -2.09284 | 25972 ft | 389 kts | 119° |
| 2026-04-21 09:05 | 55.15586 | -2.05179 | 26264 ft | 391 kts | 119° |
| 2026-04-21 09:06 | 55.14221 | -2.01041 | 26552 ft | 393 kts | 119° |
| 2026-04-21 09:06 | 55.12848 | -1.96890 | 26836 ft | 395 kts | 119° |
| 2026-04-21 09:06 | 55.11466 | -1.92718 | 27126 ft | 397 kts | 119° |
| 2026-04-21 09:06 | 55.10076 | -1.88534 | 27400 ft | 400 kts | 119° |
| 2026-04-21 09:07 | 55.08677 | -1.84329 | 27668 ft | 402 kts | 119° |
| 2026-04-21 09:07 | 55.07270 | -1.80103 | 27946 ft | 404 kts | 119° |
| 2026-04-21 09:07 | 55.05856 | -1.75864 | 28225 ft | 406 kts | 119° |
| 2026-04-21 09:07 | 55.04434 | -1.71604 | 28498 ft | 407 kts | 119° |
| 2026-04-21 09:08 | 55.03014 | -1.67313 | 28767 ft | 409 kts | 118° |
| 2026-04-21 09:08 | 55.01624 | -1.62976 | 29022 ft | 411 kts | 118° |
| 2026-04-21 09:08 | 55.00245 | -1.58576 | 29192 ft | 415 kts | 117° |
| 2026-04-21 09:08 | 54.98869 | -1.54140 | 29416 ft | 418 kts | 117° |
| 2026-04-21 09:09 | 54.97482 | -1.49674 | 29628 ft | 420 kts | 118° |
| 2026-04-21 09:09 | 54.96081 | -1.45197 | 29865 ft | 422 kts | 118° |
| 2026-04-21 09:09 | 54.94669 | -1.40715 | 30090 ft | 424 kts | 118° |
| 2026-04-21 09:09 | 54.93243 | -1.36222 | 30331 ft | 425 kts | 118° |
| 2026-04-21 09:10 | 54.91805 | -1.31716 | 30556 ft | 427 kts | 118° |
| 2026-04-21 09:10 | 54.90362 | -1.27211 | 30818 ft | 427 kts | 118° |
| 2026-04-21 09:10 | 54.88916 | -1.22698 | 31049 ft | 427 kts | 118° |
| 2026-04-21 09:10 | 54.87475 | -1.18204 | 31290 ft | 427 kts | 118° |
| 2026-04-21 09:11 | 54.86033 | -1.13706 | 31570 ft | 426 kts | 118° |
| 2026-04-21 09:11 | 54.84591 | -1.09205 | 31763 ft | 427 kts | 118° |
| 2026-04-21 09:11 | 54.83146 | -1.04698 | 31962 ft | 428 kts | 118° |
| 2026-04-21 09:11 | 54.81691 | -1.00184 | 32200 ft | 428 kts | 118° |
| 2026-04-21 09:12 | 54.80235 | -0.95681 | 32452 ft | 428 kts | 118° |
| 2026-04-21 09:12 | 54.78780 | -0.91190 | 32750 ft | 426 kts | 118° |
| 2026-04-21 09:12 | 54.77327 | -0.86711 | 32959 ft | 427 kts | 118° |
| 2026-04-21 09:12 | 54.75867 | -0.82222 | 33150 ft | 429 kts | 119° |
| 2026-04-21 09:13 | 54.74401 | -0.77719 | 33317 ft | 430 kts | 118° |
| 2026-04-21 09:13 | 54.72927 | -0.73192 | 33468 ft | 433 kts | 118° |
| 2026-04-21 09:13 | 54.71447 | -0.68653 | 33647 ft | 434 kts | 118° |
| 2026-04-21 09:13 | 54.69958 | -0.64103 | 33814 ft | 436 kts | 119° |
| 2026-04-21 09:14 | 54.68458 | -0.59536 | 33990 ft | 437 kts | 119° |
| 2026-04-21 09:14 | 54.66953 | -0.54964 | 34154 ft | 438 kts | 119° |
| 2026-04-21 09:14 | 54.65443 | -0.50385 | 34375 ft | 439 kts | 119° |
| 2026-04-21 09:14 | 54.63933 | -0.45808 | 34574 ft | 439 kts | 119° |
| 2026-04-21 09:15 | 54.62416 | -0.41221 | 34724 ft | 440 kts | 119° |
| 2026-04-21 09:15 | 54.60895 | -0.36628 | 34888 ft | 441 kts | 119° |
| 2026-04-21 09:15 | 54.59373 | -0.32037 | 35050 ft | 441 kts | 119° |
| 2026-04-21 09:15 | 54.57850 | -0.27445 | 35200 ft | 442 kts | 119° |
| 2026-04-21 09:16 | 54.56326 | -0.22864 | 35400 ft | 441 kts | 119° |
| 2026-04-21 09:16 | 54.54795 | -0.18271 | 35482 ft | 442 kts | 119° |
| 2026-04-21 09:16 | 54.51734 | -0.09112 | 35499 ft | 441 kts | 119° |
| 2026-04-21 09:17 | 54.48664 | 0.00015 | 35487 ft | 442 kts | 119° |
| 2026-04-21 09:17 | 54.45572 | 0.09176 | 35493 ft | 443 kts | 119° |
| 2026-04-21 09:18 | 54.42471 | 0.18343 | 35491 ft | 443 kts | 120° |
| 2026-04-21 09:18 | 54.39371 | 0.27500 | 35489 ft | 444 kts | 119° |
| 2026-04-21 09:19 | 54.36262 | 0.36640 | 35487 ft | 443 kts | 119° |
| 2026-04-21 09:19 | 54.33665 | 0.44212 | 35477 ft | 443 kts | 119° |
| 2026-04-21 09:20 | 54.30539 | 0.53312 | 35484 ft | 443 kts | 119° |
| 2026-04-21 09:20 | 54.27413 | 0.62401 | 35492 ft | 442 kts | 120° |
| 2026-04-21 09:21 | 54.24290 | 0.71445 | 35486 ft | 441 kts | 119° |
| 2026-04-21 09:21 | 54.21151 | 0.80485 | 35464 ft | 443 kts | 120° |
| 2026-04-21 09:22 | 54.17996 | 0.89522 | 35451 ft | 444 kts | 120° |
| 2026-04-21 09:22 | 54.14831 | 0.98580 | 35451 ft | 445 kts | 120° |